Time;durP1;ratioP1;P1;durP2;ratioP2;P2;SDS_P1;SDS_P2;PMS_P1;PMS_P2;Temp;Humidity;BMP_temperature;BMP_pressure;BME280_temperature;BME280_humidity;BME280_pressure;Samples;Min_cycle;Max_cycle;Signal;HPM_P1;HPM_P2
2022/07/14 00:01:02;;;;;;;1999.90;999.90;;;;;;;25.24;36.17;95730.09;5027035;28;20430;-67
2022/07/14 00:03:27;;;;;;;1999.90;999.90;;;;;;;25.58;36.05;95774.13;5023119;28;20018;-67
2022/07/14 00:05:53;;;;;;;1999.90;999.90;;;;;;;25.66;36.18;95784.69;5035847;28;20030;-67
2022/07/14 00:08:18;;;;;;;1999.90;999.90;;;;;;;25.24;36.31;95722.69;5010451;28;20096;-66
2022/07/14 00:10:44;;;;;;;1999.90;999.90;;;;;;;25.59;36.59;95772.97;5008471;28;20022;-68
2022/07/14 00:13:09;;;;;;;1999.90;999.90;;;;;;;25.61;36.71;95782.31;5024517;28;20022;-66
2022/07/14 00:15:35;;;;;;;1999.90;999.90;;;;;;;25.60;36.78;95771.81;5010918;28;20021;-68
2022/07/14 00:18:00;;;;;;;1999.90;999.90;;;;;;;25.58;36.70;95768.69;5011306;28;20030;-66
2022/07/14 00:20:26;;;;;;;1999.90;999.90;;;;;;;25.59;36.95;95765.59;5009980;28;20630;-66
2022/07/14 00:22:51;;;;;;;1999.90;999.90;;;;;;;25.62;37.05;95769.47;5008974;28;20061;-66
2022/07/14 00:25:17;;;;;;;1999.90;999.90;;;;;;;25.58;37.44;95771.41;5010067;28;20034;-67
2022/07/14 00:27:43;;;;;;;1999.90;999.90;;;;;;;25.40;37.35;95734.03;5006332;28;20022;-67
2022/07/14 00:30:09;;;;;;;1999.90;999.90;;;;;;;25.53;37.67;95756.22;5024812;28;20037;-67
2022/07/14 00:32:35;;;;;;;1999.90;999.90;;;;;;;25.51;38.07;95749.63;5018820;28;20713;-66
2022/07/14 00:35:01;;;;;;;1999.90;999.90;;;;;;;25.55;38.24;95756.63;5018607;28;20109;-67
2022/07/14 00:37:27;;;;;;;1999.90;999.90;;;;;;;25.41;38.16;95735.56;5010219;28;20029;-66
2022/07/14 00:39:54;;;;;;;1999.90;999.90;;;;;;;25.45;38.20;95730.16;5009859;28;20147;-67
2022/07/14 00:42:30;;;;;;;1999.90;999.90;;;;;;;25.51;37.96;95749.63;5009580;28;20022;-67
2022/07/14 00:44:56;;;;;;;1999.90;999.90;;;;;;;25.54;38.59;95749.63;5024622;28;20030;-67
2022/07/14 00:47:22;;;;;;;1999.90;999.90;;;;;;;25.43;38.65;95735.19;5008772;28;20087;-67
2022/07/14 00:49:50;;;;;;;1999.90;999.90;;;;;;;25.50;38.63;95757.00;5008952;28;20038;-67
2022/07/14 00:52:15;;;;;;;1999.90;999.90;;;;;;;25.50;39.22;95746.09;5010814;28;20037;-67
2022/07/14 00:54:41;;;;;;;1999.90;999.90;;;;;;;25.51;38.80;95744.94;5014227;28;20029;-67
2022/07/14 00:57:06;;;;;;;1999.90;999.90;;;;;;;25.42;39.18;95733.63;5031159;28;20026;-67
2022/07/14 00:59:32;;;;;;;1999.90;999.90;;;;;;;25.47;38.99;95740.66;5024598;28;20535;-66
2022/07/14 01:01:57;;;;;;;1999.90;999.90;;;;;;;25.54;38.89;95744.19;5025223;28;20033;-67
2022/07/14 01:04:23;;;;;;;1999.90;999.90;;;;;;;25.49;38.85;95732.84;5009835;28;20084;-66
2022/07/14 01:06:48;;;;;;;1999.90;999.90;;;;;;;25.55;38.93;95736.78;5009179;28;20040;-68
2022/07/14 01:09:13;;;;;;;1999.90;999.90;;;;;;;25.53;38.88;95734.44;5010017;28;20053;-67
2022/07/14 01:11:38;;;;;;;1999.90;999.90;;;;;;;25.47;38.77;95732.47;5010131;28;20038;-66
2022/07/14 01:14:04;;;;;;;1999.90;999.90;;;;;;;25.51;38.83;95749.63;5016382;28;20060;-68
2022/07/14 01:16:29;;;;;;;1999.90;999.90;;;;;;;25.60;38.69;95758.19;5008347;28;20398;-66
2022/07/14 01:18:55;;;;;;;1999.90;999.90;;;;;;;25.39;39.16;95754.25;5007902;28;20068;-67
2022/07/14 01:21:20;;;;;;;1999.90;999.90;;;;;;;25.27;39.15;95765.47;5008850;28;20664;-67
2022/07/14 01:23:45;;;;;;;1999.90;999.90;;;;;;;25.10;39.81;95753.38;5007399;28;20038;-67
2022/07/14 01:26:11;;;;;;;1999.90;999.90;;;;;;;25.37;38.97;95759.28;5010129;28;20033;-67
2022/07/14 01:28:36;;;;;;;1999.90;999.90;;;;;;;25.29;39.64;95741.38;5008449;28;20034;-66
2022/07/14 01:31:01;;;;;;;1999.90;999.90;;;;;;;25.40;39.82;95761.25;5008438;28;20026;-67
2022/07/14 01:33:26;;;;;;;1999.90;999.90;;;;;;;25.21;40.11;95739.78;5008510;28;20037;-66
2022/07/14 01:35:52;;;;;;;1999.90;999.90;;;;;;;25.31;39.77;95725.44;5008773;28;20037;-67
2022/07/14 01:38:17;;;;;;;1999.90;999.90;;;;;;;25.60;39.63;95747.31;5029226;28;20032;-66
2022/07/14 01:40:44;;;;;;;1999.90;999.90;;;;;;;25.48;39.58;95723.13;5027036;28;20036;-67
2022/07/14 01:43:10;;;;;;;1999.90;999.90;;;;;;;25.30;39.53;95699.38;5008815;28;20124;-67
2022/07/14 01:45:36;;;;;;;1999.90;999.90;;;;;;;25.60;39.43;95748.09;5008594;28;20100;-67
2022/07/14 01:48:01;;;;;;;1999.90;999.90;;;;;;;25.52;39.37;95732.09;5017871;28;20060;-66
2022/07/14 01:50:27;;;;;;;1999.90;999.90;;;;;;;25.37;39.30;95713.00;5008185;28;20471;-67
2022/07/14 01:52:52;;;;;;;1999.90;999.90;;;;;;;25.29;39.20;95700.53;5009673;28;20115;-68
2022/07/14 01:55:17;;;;;;;1999.90;999.90;;;;;;;25.29;39.39;95713.38;5011574;28;20633;-65
2022/07/14 01:57:43;;;;;;;1999.90;999.90;;;;;;;25.32;39.59;95726.22;5029547;28;20424;-66
2022/07/14 02:00:09;;;;;;;1999.90;999.90;;;;;;;25.10;39.73;95698.16;5008868;28;20042;-66
2022/07/14 02:02:34;;;;;;;1999.90;999.90;;;;;;;25.02;40.13;95697.31;5009464;28;20022;-66
2022/07/14 02:04:59;;;;;;;1999.90;999.90;;;;;;;25.05;40.08;95701.22;5009056;28;20113;-66
2022/07/14 02:07:25;;;;;;;1999.90;999.90;;;;;;;24.96;39.88;95692.63;5011965;28;20029;-66
2022/07/14 02:12:33;;;;;;;1999.90;999.90;;;;;;;24.89;40.00;95699.59;5012571;28;20037;-66
2022/07/14 02:14:59;;;;;;;1999.90;999.90;;;;;;;24.97;40.12;95726.81;5011688;28;20057;-66
2022/07/14 02:17:24;;;;;;;1999.90;999.90;;;;;;;24.87;40.34;95740.00;5017572;28;20049;-66
2022/07/14 02:19:50;;;;;;;1999.90;999.90;;;;;;;24.64;40.84;95720.47;5015150;28;20029;-66
2022/07/14 02:22:15;;;;;;;1999.90;999.90;;;;;;;24.55;41.00;95728.94;5028667;28;20076;-66
2022/07/14 02:24:41;;;;;;;1999.90;999.90;;;;;;;24.34;41.24;95710.53;5012346;28;20537;-65
2022/07/14 02:27:07;;;;;;;1999.90;999.90;;;;;;;24.30;41.32;95715.16;5012457;28;20022;-65
2022/07/14 02:29:33;;;;;;;1999.90;999.90;;;;;;;24.32;41.23;95720.25;5010198;28;20470;-65
2022/07/14 02:31:58;;;;;;;1999.90;999.90;;;;;;;24.28;41.47;95722.94;5019577;28;20031;-66
2022/07/14 02:34:24;;;;;;;1999.90;999.90;;;;;;;24.13;41.13;95696.81;5015363;28;20475;-66
2022/07/14 02:36:49;;;;;;;1999.90;999.90;;;;;;;24.18;41.16;95709.25;5012515;28;20355;-66
2022/07/14 02:39:14;;;;;;;1999.90;999.90;;;;;;;24.15;41.03;95707.28;5015171;28;20033;-66
2022/07/14 02:41:43;;;;;;;1999.90;999.90;;;;;;;24.20;41.36;95726.75;5039616;28;20024;-66
2022/07/14 02:44:09;;;;;;;1999.90;999.90;;;;;;;24.24;40.96;95732.22;5016321;28;20524;-67
2022/07/14 02:46:35;;;;;;;1999.90;999.90;;;;;;;23.99;40.84;95718.44;5011078;28;20041;-66
2022/07/14 02:49:00;;;;;;;1999.90;999.90;;;;;;;23.75;41.78;95728.72;5011294;28;20022;-66
2022/07/14 02:51:26;;;;;;;1999.90;999.90;;;;;;;23.73;42.08;95727.53;5012602;28;20061;-66
2022/07/14 02:53:51;;;;;;;1999.90;999.90;;;;;;;23.59;41.76;95720.00;5019328;28;20057;-66
2022/07/14 02:56:16;;;;;;;1999.90;999.90;;;;;;;23.80;41.57;95728.38;5020614;28;20394;-66
2022/07/14 02:58:42;;;;;;;1999.90;999.90;;;;;;;23.56;42.63;95713.38;5011311;28;20029;-66
2022/07/14 03:01:08;;;;;;;1999.90;999.90;;;;;;;23.57;42.67;95720.38;5011638;28;20053;-65
2022/07/14 03:03:35;;;;;;;1999.90;999.90;;;;;;;23.89;41.85;95735.44;5020392;28;20018;-65
2022/07/14 03:06:10;;;;;;;1999.90;999.90;;;;;;;23.78;42.01;95697.31;5011344;28;20026;-65
2022/07/14 03:08:35;;;;;;;1999.90;999.90;;;;;;;23.81;41.59;95702.00;5007592;28;20126;-66
2022/07/14 03:11:01;;;;;;;1999.90;999.90;;;;;;;24.05;41.59;95734.00;5012185;28;20573;-66
2022/07/14 03:13:26;;;;;;;1999.90;999.90;;;;;;;23.98;41.86;95706.78;5010918;28;20028;-66
2022/07/14 03:15:51;;;;;;;1999.90;999.90;;;;;;;23.78;41.49;95672.84;5011761;28;20026;-66
2022/07/14 03:18:17;;;;;;;1999.90;999.90;;;;;;;24.04;41.96;95705.28;5014782;28;20022;-65
2022/07/14 03:20:42;;;;;;;1999.90;999.90;;;;;;;24.21;41.60;95733.75;5016035;28;20053;-66
2022/07/14 03:23:07;;;;;;;1999.90;999.90;;;;;;;24.24;41.63;95734.94;5018585;28;20026;-66
2022/07/14 03:25:33;;;;;;;1999.90;999.90;;;;;;;24.16;41.79;95725.97;5011639;28;20470;-66
2022/07/14 03:27:58;;;;;;;1999.90;999.90;;;;;;;24.15;41.86;95737.19;4996453;28;20038;-66
2022/07/14 03:30:23;;;;;;;1999.90;999.90;;;;;;;24.19;42.22;95744.22;5010784;28;20034;-66
2022/07/14 03:32:49;;;;;;;1999.90;999.90;;;;;;;23.60;42.29;95668.03;5012288;28;20125;-65
2022/07/14 03:35:14;;;;;;;1999.90;999.90;;;;;;;23.57;42.08;95681.56;5010494;28;20113;-66
2022/07/14 03:37:39;;;;;;;1999.90;999.90;;;;;;;23.75;42.49;95712.44;5012259;28;20026;-66
2022/07/14 03:40:06;;;;;;;1999.90;999.90;;;;;;;23.83;42.68;95724.91;5011224;28;20026;-66
2022/07/14 03:42:32;;;;;;;1999.90;999.90;;;;;;;23.91;42.79;95727.69;5010434;28;20029;-66
2022/07/14 03:44:57;;;;;;;1999.90;999.90;;;;;;;23.90;42.66;95720.69;5010682;28;20398;-66
2022/07/14 03:47:23;;;;;;;1999.90;999.90;;;;;;;23.98;42.86;95733.97;5015437;28;20076;-66
2022/07/14 03:49:49;;;;;;;1999.90;999.90;;;;;;;24.03;42.93;95730.13;5014643;28;20040;-66
2022/07/14 03:52:14;;;;;;;1999.90;999.90;;;;;;;24.04;42.94;95724.31;5010532;28;20421;-66
2022/07/14 03:54:46;;;;;;;1999.90;999.90;;;;;;;23.99;43.21;95710.28;5009939;28;20037;-66
2022/07/14 03:57:12;;;;;;;1999.90;999.90;;;;;;;23.92;43.39;95702.88;5011957;28;20105;-66
2022/07/14 03:59:40;;;;;;;1999.90;999.90;;;;;;;23.93;42.86;95692.78;5022520;28;20025;-66
2022/07/14 04:02:07;;;;;;;1999.90;999.90;;;;;;;24.11;43.21;95721.66;5026995;28;20381;-67
2022/07/14 04:04:33;;;;;;;1999.90;999.90;;;;;;;24.27;42.93;95710.50;5011420;28;20032;-65
2022/07/14 04:06:58;;;;;;;1999.90;999.90;;;;;;;24.22;42.58;95689.09;5010120;28;20109;-69
2022/07/14 04:09:23;;;;;;;1999.90;999.90;;;;;;;24.48;42.68;95722.69;5011130;28;20478;-66
2022/07/14 04:11:49;;;;;;;1999.90;999.90;;;;;;;24.38;42.37;95705.94;5026275;28;20064;-66
2022/07/14 04:14:14;;;;;;;1999.90;999.90;;;;;;;24.57;42.63;95718.50;5009438;28;20044;-66
2022/07/14 04:16:40;;;;;;;1999.90;999.90;;;;;;;24.71;42.21;95734.09;5009887;28;20030;-66
2022/07/14 04:19:06;;;;;;;1999.90;999.90;;;;;;;24.55;42.12;95711.84;5033939;28;20029;-66
2022/07/14 04:21:31;;;;;;;1999.90;999.90;;;;;;;24.72;42.08;95738.41;5011081;28;20029;-66
2022/07/14 04:23:57;;;;;;;1999.90;999.90;;;;;;;24.78;42.06;95744.25;5009428;28;20030;-66
2022/07/14 04:26:22;;;;;;;1999.90;999.90;;;;;;;24.84;41.94;95734.56;5034836;28;20026;-66
2022/07/14 04:28:47;;;;;;;1999.90;999.90;;;;;;;24.88;41.61;95730.69;5009526;28;20044;-66
2022/07/14 04:31:13;;;;;;;1999.90;999.90;;;;;;;25.13;41.11;95755.34;5025819;28;20454;-66
2022/07/14 04:33:38;;;;;;;1999.90;999.90;;;;;;;25.45;41.06;95721.97;5018456;28;20474;-66
2022/07/14 04:36:04;;;;;;;1999.90;999.90;;;;;;;26.12;39.79;95715.06;5009955;28;20093;-66
2022/07/14 04:38:30;;;;;;;1999.90;999.90;;;;;;;26.84;38.66;95732.88;5010429;28;20387;-66
2022/07/14 04:40:55;;;;;;;1999.90;999.90;;;;;;;27.41;37.71;95745.56;5007371;28;20070;-66
2022/07/14 04:43:21;;;;;;;1999.90;999.90;;;;;;;27.75;36.83;95720.41;5033927;28;20360;-66
2022/07/14 04:45:46;;;;;;;1999.90;999.90;;;;;;;28.39;35.76;95736.31;5023539;28;20118;-66
2022/07/14 04:48:12;;;;;;;1999.90;999.90;;;;;;;28.71;35.43;95736.78;5009443;28;20494;-66
2022/07/14 04:53:21;;;;;;;1999.90;999.90;;;;;;;29.13;33.91;95731.28;5009379;28;20462;-66
2022/07/14 04:55:47;;;;;;;1999.90;999.90;;;;;;;28.94;34.14;95721.72;5008685;28;20054;-66
2022/07/14 04:58:12;;;;;;;1999.90;999.90;;;;;;;28.76;34.52;95730.06;5010439;28;20018;-67
2022/07/14 05:00:37;;;;;;;1999.90;999.90;;;;;;;28.48;34.54;95725.69;5016010;28;20117;-66
2022/07/14 05:03:03;;;;;;;1999.90;999.90;;;;;;;28.16;35.44;95723.22;5010136;28;20014;-66
2022/07/14 05:05:28;;;;;;;1999.90;999.90;;;;;;;28.03;35.57;95728.38;5008098;28;20387;-66
2022/07/14 05:07:54;;;;;;;1999.90;999.90;;;;;;;27.77;35.98;95718.03;5009966;28;20113;-66
2022/07/14 05:12:54;;;;;;;1999.90;999.90;;;;;;;27.57;36.29;95731.41;5677557;22;20495;-65
2022/07/14 05:15:20;;;;;;;1999.90;999.90;;;;;;;27.41;36.87;95751.78;5027950;28;20028;-65
2022/07/14 05:17:45;;;;;;;1999.90;999.90;;;;;;;27.23;37.11;95745.66;5029859;28;20113;-65
2022/07/14 05:20:11;;;;;;;1999.90;999.90;;;;;;;27.07;37.12;95745.28;5033295;28;20546;-65
2022/07/14 05:22:41;;;;;;;1999.90;999.90;;;;;;;27.14;37.80;95762.44;5029445;28;20037;-65
2022/07/14 05:25:11;;;;;;;1999.90;999.90;;;;;;;27.04;37.78;95757.00;5028813;28;20481;-65
2022/07/14 05:27:40;;;;;;;1999.90;999.90;;;;;;;26.94;38.26;95762.09;5030198;28;20104;-66
2022/07/14 05:30:07;;;;;;;1999.90;999.90;;;;;;;26.96;38.49;95765.19;5029908;28;20026;-66
2022/07/14 05:32:33;;;;;;;1999.90;999.90;;;;;;;26.98;37.81;95762.09;5029570;28;20022;-65
2022/07/14 05:34:58;;;;;;;1999.90;999.90;;;;;;;27.03;37.97;95753.50;5028915;28;20040;-66
2022/07/14 05:37:24;;;;;;;1999.90;999.90;;;;;;;27.27;37.66;95759.28;5030028;28;20087;-65
2022/07/14 05:39:50;;;;;;;1999.90;999.90;;;;;;;27.41;37.26;95756.47;5028653;28;20129;-69
2022/07/14 05:42:15;;;;;;;1999.90;999.90;;;;;;;27.67;36.83;95746.97;5027762;28;20116;-67
2022/07/14 05:44:40;;;;;;;1999.90;999.90;;;;;;;27.95;36.64;95746.81;5028030;28;20025;-66
2022/07/14 05:47:06;;;;;;;1999.90;999.90;;;;;;;28.24;36.14;95741.88;5028503;28;20892;-65
2022/07/14 05:49:31;;;;;;;1999.90;999.90;;;;;;;28.55;35.81;95736.53;5029016;28;20397;-66
2022/07/14 05:51:56;;;;;;;1999.90;999.90;;;;;;;28.70;34.89;95748.91;5028101;28;20112;-65
2022/07/14 05:54:21;;;;;;;1999.90;999.90;;;;;;;28.65;34.64;95735.66;5027999;28;20105;-65
2022/07/14 05:56:47;;;;;;;1999.90;999.90;;;;;;;28.59;34.55;95742.78;5028103;28;20017;-65
2022/07/14 05:59:12;;;;;;;1999.90;999.90;;;;;;;28.53;34.59;95746.34;5029582;28;20370;-66
2022/07/14 06:01:38;;;;;;;1999.90;999.90;;;;;;;28.45;33.95;95735.47;5029521;28;20453;-65
2022/07/14 06:04:03;;;;;;;1999.90;999.90;;;;;;;28.35;34.20;95719.94;5026773;28;20029;-66
2022/07/14 06:06:28;;;;;;;1999.90;999.90;;;;;;;28.47;33.77;95729.59;5029403;28;20029;-66
2022/07/14 06:08:54;;;;;;;1999.90;999.90;;;;;;;28.60;34.08;95744.31;5029578;28;20028;-65
2022/07/14 06:11:19;;;;;;;1999.90;999.90;;;;;;;28.15;34.21;95729.84;5027901;28;20473;-64
2022/07/14 06:13:45;;;;;;;1999.90;999.90;;;;;;;28.30;33.72;95730.50;5028906;28;20129;-69
2022/07/14 06:16:12;;;;;;;1999.90;999.90;;;;;;;28.40;33.54;95737.88;5029423;28;20489;-67
2022/07/14 06:18:37;;;;;;;1999.90;999.90;;;;;;;28.36;33.51;95718.78;5029397;28;20033;-66
2022/07/14 06:21:09;;;;;;;1999.90;999.90;;;;;;;28.47;33.47;95738.59;5028780;28;20030;-68
2022/07/14 06:23:35;;;;;;;1999.90;999.90;;;;;;;28.26;32.96;95741.50;5029221;28;20021;-69
2022/07/14 06:26:08;;;;;;;1999.90;999.90;;;;;;;28.61;33.27;95739.63;5029439;28;20076;-66
2022/07/14 06:28:33;;;;;;;1999.90;999.90;;;;;;;28.76;33.26;95721.84;5029635;28;20052;-66
2022/07/14 06:30:58;;;;;;;1999.90;999.90;;;;;;;29.00;32.80;95726.31;5029298;28;20041;-64
2022/07/14 06:33:24;;;;;;;1999.90;999.90;;;;;;;29.21;32.21;95725.28;5028823;28;20454;-64
2022/07/14 06:35:49;;;;;;;1999.90;999.90;;;;;;;29.31;31.69;95712.63;5028160;28;20437;-64
2022/07/14 06:38:15;;;;;;;1999.90;999.90;;;;;;;29.63;31.59;95695.75;5029350;28;20112;-64
2022/07/14 06:40:41;;;;;;;1999.90;999.90;;;;;;;30.02;30.85;95697.91;5029334;28;20104;-64
2022/07/14 06:43:06;;;;;;;1999.90;999.90;;;;;;;30.23;29.45;95672.09;5028729;28;20113;-64
2022/07/14 06:45:31;;;;;;;1999.90;999.90;;;;;;;30.91;28.57;95698.31;5029322;28;20359;-64
2022/07/14 06:47:57;;;;;;;1999.90;999.90;;;;;;;31.20;26.27;95690.28;5028950;28;20547;-64
2022/07/14 06:50:22;;;;;;;1999.90;999.90;;;;;;;31.31;25.78;95687.31;5027016;28;20470;-63
2022/07/14 06:52:47;;;;;;;1999.90;999.90;;;;;;;31.58;25.61;95674.16;5029061;28;22104;-64
2022/07/14 06:55:13;;;;;;;1999.90;999.90;;;;;;;31.92;25.77;95686.75;5033348;28;20064;-64
2022/07/14 06:57:38;;;;;;;1999.90;999.90;;;;;;;31.89;24.43;95653.81;5033122;28;20029;-63
2022/07/14 07:00:07;;;;;;;1999.90;999.90;;;;;;;32.50;24.11;95697.91;5031543;28;20041;-63
2022/07/14 07:02:35;;;;;;;1999.90;999.90;;;;;;;31.98;23.22;95687.00;5032858;28;20029;-64
2022/07/14 07:07:44;;;;;;;1999.90;999.90;;;;;;;32.76;22.49;95678.69;5031524;28;20107;-65
2022/07/14 07:10:11;;;;;;;1999.90;999.90;;;;;;;32.28;23.23;95680.34;5033208;28;20029;-63
2022/07/14 07:12:37;;;;;;;1999.90;999.90;;;;;;;32.63;22.65;95680.66;5032790;28;20495;-65
2022/07/14 07:15:03;;;;;;;1999.90;999.90;;;;;;;33.24;21.97;95675.00;5033074;28;20026;-67
2022/07/14 07:17:28;;;;;;;1999.90;999.90;;;;;;;33.31;20.08;95690.56;5032986;28;20026;-65
2022/07/14 07:19:53;;;;;;;1999.90;999.90;;;;;;;32.99;21.99;95667.47;5032026;28;20661;-64
2022/07/14 07:22:18;;;;;;;1999.90;999.90;;;;;;;32.98;21.87;95687.97;5029104;28;20057;-64
2022/07/14 07:24:44;;;;;;;1999.90;999.90;;;;;;;33.61;23.69;95690.06;5033037;28;20034;-67
2022/07/14 07:27:09;;;;;;;1999.90;999.90;;;;;;;33.77;23.07;95683.66;5032742;28;20075;-64
2022/07/14 07:29:34;;;;;;;1999.90;999.90;;;;;;;33.79;21.78;95672.97;5031690;28;20096;-65
2022/07/14 07:31:59;;;;;;;1999.90;999.90;;;;;;;33.78;23.32;95660.38;5031225;28;20176;-64
2022/07/14 07:34:25;;;;;;;1999.90;999.90;;;;;;;33.90;23.07;95675.38;5032655;28;20029;-64
2022/07/14 07:36:50;;;;;;;1999.90;999.90;;;;;;;33.81;22.33;95675.25;5030596;28;20083;-64
2022/07/14 07:39:15;;;;;;;1999.90;999.90;;;;;;;31.92;24.11;95691.47;5031012;28;20083;-64
2022/07/14 07:41:41;;;;;;;1999.90;999.90;;;;;;;33.00;21.73;95674.50;5030823;28;20026;-64
2022/07/14 07:44:06;;;;;;;1999.90;999.90;;;;;;;33.19;21.90;95672.03;5030459;28;20021;-64
2022/07/14 07:46:32;;;;;;;1999.90;999.90;;;;;;;32.92;22.96;95681.44;5031126;28;20022;-64
2022/07/14 07:48:57;;;;;;;1999.90;999.90;;;;;;;32.96;23.37;95648.25;5032425;28;20033;-64
2022/07/14 07:51:23;;;;;;;1999.90;999.90;;;;;;;33.23;22.74;95661.66;5029890;28;20029;-64
2022/07/14 07:53:48;;;;;;;1999.90;999.90;;;;;;;32.28;23.34;95666.59;5029379;28;20680;-64
2022/07/14 07:56:14;;;;;;;1999.90;999.90;;;;;;;31.88;22.98;95641.25;5030529;28;20029;-64
2022/07/14 07:58:39;;;;;;;1999.90;999.90;;;;;;;31.55;23.98;95636.50;5030687;28;20064;-66
2022/07/14 08:01:04;;;;;;;1999.90;999.90;;;;;;;31.50;24.16;95656.25;5031920;28;20425;-64
2022/07/14 08:03:30;;;;;;;1999.90;999.90;;;;;;;31.69;23.80;95656.63;5029553;28;20037;-63
2022/07/14 08:05:55;;;;;;;1999.90;999.90;;;;;;;32.41;23.57;95661.94;5030744;28;20528;-64
2022/07/14 08:08:21;;;;;;;1999.90;999.90;;;;;;;31.37;23.34;95655.38;5030894;28;20029;-63
2022/07/14 08:10:47;;;;;;;1999.90;999.90;;;;;;;31.77;23.18;95653.25;5031778;28;20075;-64
2022/07/14 08:13:12;;;;;;;1999.90;999.90;;;;;;;32.23;22.41;95656.88;5029827;28;20036;-64
2022/07/14 08:15:38;;;;;;;1999.90;999.90;;;;;;;32.34;22.31;95634.56;5031781;28;20026;-64
2022/07/14 08:18:04;;;;;;;1999.90;999.90;;;;;;;32.45;22.79;95629.59;5030189;28;20037;-64
2022/07/14 08:20:30;;;;;;;1999.90;999.90;;;;;;;31.12;21.37;95608.41;5029351;28;20112;-64
2022/07/14 08:22:56;;;;;;;1999.90;999.90;;;;;;;31.87;21.73;95628.72;5028689;28;20025;-64
2022/07/14 08:25:22;;;;;;;1999.90;999.90;;;;;;;31.54;21.07;95632.22;5030139;28;20032;-64
2022/07/14 08:27:47;;;;;;;1999.90;999.90;;;;;;;30.66;21.89;95613.66;5029943;28;20025;-65
2022/07/14 08:30:13;;;;;;;1999.90;999.90;;;;;;;31.25;22.20;95636.78;5031359;28;20428;-64
2022/07/14 08:32:49;;;;;;;1999.90;999.90;;;;;;;31.49;21.98;95599.72;5030936;28;20038;-65
2022/07/14 08:35:17;;;;;;;1999.90;999.90;;;;;;;31.14;24.05;95626.03;5029413;28;20026;-65
2022/07/14 08:37:43;;;;;;;1999.90;999.90;;;;;;;30.99;25.00;95631.03;5029035;28;20040;-64
2022/07/14 08:40:11;;;;;;;1999.90;999.90;;;;;;;31.15;24.73;95602.06;5030951;28;20508;-65
2022/07/14 08:42:38;;;;;;;1999.90;999.90;;;;;;;31.16;25.38;95620.88;5027693;28;20037;-64
2022/07/14 08:45:08;;;;;;;1999.90;999.90;;;;;;;30.38;23.57;95606.75;5031010;28;20025;-64
2022/07/14 08:47:34;;;;;;;1999.90;999.90;;;;;;;29.80;22.87;95610.91;5029961;28;20029;-64
2022/07/14 08:50:00;;;;;;;1999.90;999.90;;;;;;;30.49;24.10;95601.81;5031254;28;20076;-64
2022/07/14 08:52:25;;;;;;;1999.90;999.90;;;;;;;30.90;23.91;95617.09;5029425;28;20769;-64
2022/07/14 08:54:51;;;;;;;1999.90;999.90;;;;;;;30.91;24.17;95612.38;5029777;28;20030;-65
2022/07/14 08:57:17;;;;;;;1999.90;999.90;;;;;;;30.71;24.11;95612.41;5031001;28;20039;-64
2022/07/14 08:59:42;;;;;;;1999.90;999.90;;;;;;;30.91;24.96;95612.38;5030852;28;20028;-64
2022/07/14 09:02:07;;;;;;;1999.90;999.90;;;;;;;30.61;24.99;95585.91;5030310;28;20033;-64
2022/07/14 09:04:33;;;;;;;1999.90;999.90;;;;;;;30.93;25.06;95610.00;5030739;28;20028;-64
2022/07/14 09:06:58;;;;;;;1999.90;999.90;;;;;;;30.93;24.57;95604.50;5029908;28;20481;-64
2022/07/14 09:09:26;;;;;;;1999.90;999.90;;;;;;;29.95;24.28;95596.53;5030171;28;20442;-65
2022/07/14 09:12:01;;;;;;;1999.90;999.90;;;;;;;30.27;24.02;95589.72;5030413;28;20068;-64
2022/07/14 09:17:20;;;;;;;1999.90;999.90;;;;;;;30.12;23.16;95600.19;5030186;28;20032;-64
2022/07/14 09:20:10;;;;;;;1999.90;999.90;;;;;;;30.54;20.92;95584.09;5029101;28;20044;-64
2022/07/14 09:22:38;;;;;;;1999.90;999.90;;;;;;;30.85;21.70;95590.13;5029211;28;20036;-62
2022/07/14 09:25:08;;;;;;;1999.90;999.90;;;;;;;30.64;21.37;95574.84;5028292;28;20029;-63
2022/07/14 09:27:34;;;;;;;1999.90;999.90;;;;;;;30.74;21.13;95571.16;5029245;28;20014;-63
2022/07/14 09:30:01;;;;;;;1999.90;999.90;;;;;;;31.36;21.98;95576.88;5030165;28;20021;-64
2022/07/14 09:32:51;;;;;;;1999.90;999.90;;;;;;;31.65;21.57;95578.94;5029831;28;20078;-64
2022/07/14 09:35:20;;;;;;;1999.90;999.90;;;;;;;31.10;21.67;95566.84;5020418;28;20104;-64
2022/07/14 09:37:46;;;;;;;1999.90;999.90;;;;;;;30.57;21.68;95561.28;5028273;28;20067;-63
2022/07/14 09:40:27;;;;;;;1999.90;999.90;;;;;;;30.76;21.44;95548.75;5027601;28;20041;-64
2022/07/14 09:43:15;;;;;;;1999.90;999.90;;;;;;;31.21;21.61;95570.13;5029685;28;20029;-63
2022/07/14 09:45:44;;;;;;;1999.90;999.90;;;;;;;31.96;21.18;95566.38;5030082;28;20068;-65
2022/07/14 09:48:14;;;;;;;1999.90;999.90;;;;;;;31.84;21.03;95547.84;5028690;28;20498;-64
2022/07/14 09:50:57;;;;;;;1999.90;999.90;;;;;;;32.01;21.73;95552.09;5028687;28;20025;-63
2022/07/14 09:53:36;;;;;;;1999.90;999.90;;;;;;;31.88;21.64;95544.97;5011788;28;20033;-63
2022/07/14 09:56:01;;;;;;;1999.90;999.90;;;;;;;31.99;21.89;95549.00;5028455;28;20132;-62
2022/07/14 09:58:31;;;;;;;1999.90;999.90;;;;;;;31.66;22.25;95550.22;5028640;28;20065;-63
2022/07/14 10:01:06;;;;;;;1999.90;999.90;;;;;;;31.83;22.63;95529.75;5029761;28;20101;-63
2022/07/14 10:03:33;;;;;;;1999.90;999.90;;;;;;;31.99;21.97;95524.25;5029442;28;20027;-63
2022/07/14 10:06:00;;;;;;;1999.90;999.90;;;;;;;31.93;22.45;95536.19;5028803;28;20026;-64
2022/07/14 10:08:29;;;;;;;1999.90;999.90;;;;;;;31.45;22.47;95533.06;5029038;28;20021;-63
2022/07/14 10:10:56;;;;;;;1999.90;999.90;;;;;;;31.96;22.07;95533.34;5029841;28;20037;-64
2022/07/14 10:13:22;;;;;;;1999.90;999.90;;;;;;;31.66;21.17;95523.50;5028038;28;20079;-64
2022/07/14 10:15:52;;;;;;;1999.90;999.90;;;;;;;31.20;21.03;95530.88;5029699;28;20814;-64
2022/07/14 10:18:18;;;;;;;1999.90;999.90;;;;;;;31.54;20.93;95522.22;5028496;28;20029;-64
2022/07/14 10:20:46;;;;;;;1999.90;999.90;;;;;;;31.91;20.50;95524.84;5029789;28;20025;-63
2022/07/14 10:23:12;;;;;;;1999.90;999.90;;;;;;;31.90;21.32;95518.59;5028481;28;20486;-64
2022/07/14 10:25:39;;;;;;;1999.90;999.90;;;;;;;32.64;20.67;95525.97;5027690;28;20125;-64
2022/07/14 10:28:04;;;;;;;1999.90;999.90;;;;;;;32.63;21.45;95515.41;5031021;28;20022;-63
2022/07/14 10:31:02;;;;;;;1999.90;999.90;;;;;;;32.16;21.38;95507.69;5033619;28;20036;-63
2022/07/14 10:33:41;;;;;;;1999.90;999.90;;;;;;;32.43;21.15;95497.09;5033248;28;20080;-63
2022/07/14 10:36:37;;;;;;;1999.90;999.90;;;;;;;31.99;21.93;95510.50;5033216;28;20056;-63
2022/07/14 10:39:18;;;;;;;1999.90;999.90;;;;;;;32.08;21.14;95505.09;5017046;28;20572;-63
2022/07/14 10:41:55;;;;;;;1999.90;999.90;;;;;;;32.24;20.97;95506.25;5032219;28;20029;-63
2022/07/14 10:44:21;;;;;;;1999.90;999.90;;;;;;;31.86;20.82;95508.88;5032870;28;20052;-63
2022/07/14 10:46:49;;;;;;;1999.90;999.90;;;;;;;32.03;20.85;95505.63;5033438;28;20033;-63
2022/07/14 10:49:16;;;;;;;1999.90;999.90;;;;;;;32.06;20.12;95502.03;5033350;28;20049;-63
2022/07/14 10:51:44;;;;;;;1999.90;999.90;;;;;;;32.08;21.27;95501.59;5032202;28;20057;-63
2022/07/14 10:54:27;;;;;;;1999.90;999.90;;;;;;;32.47;20.89;95489.50;5032179;28;20080;-62
2022/07/14 10:57:09;;;;;;;1999.90;999.90;;;;;;;33.45;20.09;95499.88;5033204;28;20026;-61
2022/07/14 10:59:36;;;;;;;1999.90;999.90;;;;;;;33.19;19.69;95468.03;5031847;28;20039;-62
2022/07/14 11:02:26;;;;;;;1999.90;999.90;;;;;;;34.19;19.35;95484.72;5031359;28;20030;-63
2022/07/14 11:07:40;;;;;;;1999.90;999.90;;;;;;;34.21;19.01;95471.25;5032353;28;20033;-63
2022/07/14 11:10:25;;;;;;;1999.90;999.90;;;;;;;34.65;18.72;95487.78;5032097;28;20033;-63